createdAt,value
2019-06-20T00:01:48.107Z,52.05
2019-06-20T00:04:18.814Z,52.37
2019-06-20T00:06:49.841Z,52.55
2019-06-20T00:09:20.887Z,52.75
2019-06-20T00:11:51.533Z,52.45
2019-06-20T00:14:22.516Z,52.85
2019-06-20T00:16:53.485Z,53.00
2019-06-20T00:19:24.177Z,53.20
2019-06-20T00:21:55.130Z,53.28
2019-06-20T00:24:26.091Z,53.67
2019-06-20T00:26:56.803Z,53.51
2019-06-20T00:29:27.527Z,53.53
2019-06-20T00:31:59.543Z,53.77
2019-06-20T00:34:30.314Z,54.04
2019-06-20T00:37:02.646Z,54.46
2019-06-20T00:39:33.782Z,54.39
2019-06-20T00:42:04.484Z,55.03
2019-06-20T00:44:35.557Z,54.99
2019-06-20T00:47:06.338Z,54.72
2019-06-20T00:49:38.348Z,54.83
2019-06-20T00:52:09.376Z,55.09
2019-06-20T00:54:40.327Z,54.78
2019-06-20T00:57:11.053Z,55.21
2019-06-20T00:59:42.007Z,55.66
2019-06-20T01:02:12.676Z,56.17
2019-06-20T01:04:43.362Z,56.16
2019-06-20T01:07:14.246Z,56.07
2019-06-20T01:09:44.926Z,56.13
2019-06-20T01:12:15.872Z,56.38
2019-06-20T01:14:46.587Z,56.53
2019-06-20T01:17:17.550Z,56.42
2019-06-20T01:19:48.740Z,56.51
2019-06-20T01:22:19.747Z,56.98
2019-06-20T01:24:50.715Z,56.81
2019-06-20T01:27:21.625Z,56.86
2019-06-20T01:29:52.318Z,57.12
2019-06-20T01:32:23.367Z,56.80
2019-06-20T01:34:54.046Z,57.07
2019-06-20T01:37:24.733Z,57.01
2019-06-20T01:39:55.743Z,57.30
2019-06-20T01:42:26.594Z,57.16
2019-06-20T01:44:57.259Z,57.46
2019-06-20T01:47:27.935Z,57.51
2019-06-20T01:49:58.947Z,57.64
2019-06-20T01:52:29.996Z,58.04
2019-06-20T01:55:00.687Z,58.07
2019-06-20T01:57:31.758Z,57.92
2019-06-20T02:00:02.507Z,58.31
2019-06-20T02:02:33.878Z,58.51
2019-06-20T02:05:09.624Z,59.09
2019-06-20T02:07:40.665Z,59.40
2019-06-20T02:10:11.761Z,59.70
2019-06-20T02:12:43.032Z,60.02
2019-06-20T02:15:13.776Z,60.16
2019-06-20T02:17:44.512Z,60.37
2019-06-20T02:20:55.619Z,60.68
2019-06-20T02:23:27.377Z,61.22
2019-06-20T02:25:58.329Z,61.80
2019-06-20T02:28:29.253Z,62.21
2019-06-20T02:30:59.917Z,61.82
2019-06-20T02:33:30.888Z,61.79
2019-06-20T02:36:01.582Z,61.76
2019-06-20T02:38:32.562Z,62.01
2019-06-20T02:41:03.542Z,62.39
2019-06-20T02:43:34.214Z,62.20
2019-06-20T02:46:05.894Z,62.43
2019-06-20T02:48:37.024Z,62.76
2019-06-20T02:51:07.779Z,62.78
2019-06-20T02:53:39.285Z,63.11
2019-06-20T02:56:09.968Z,63.38
2019-06-20T02:58:40.896Z,63.69
2019-06-20T03:01:11.573Z,63.61
2019-06-20T03:03:42.568Z,63.64
2019-06-20T03:06:13.628Z,63.78
2019-06-20T03:08:44.312Z,63.93
2019-06-20T03:11:15.006Z,63.99
2019-06-20T03:13:46.103Z,63.92
2019-06-20T03:16:17.153Z,63.82
2019-06-20T03:18:48.221Z,64.17
2019-06-20T03:21:19.220Z,64.16
2019-06-20T03:23:50.189Z,64.24
2019-06-20T03:26:21.145Z,64.15
2019-06-20T03:28:52.165Z,64.04
2019-06-20T03:31:23.212Z,64.02
2019-06-20T03:33:53.865Z,64.06
2019-06-20T03:36:24.588Z,64.75
2019-06-20T03:38:55.256Z,64.60
2019-06-20T03:41:26.341Z,64.57
2019-06-20T03:43:59.101Z,64.90
2019-06-20T03:46:29.665Z,64.48
2019-06-20T03:49:00.708Z,64.87
2019-06-20T03:51:31.757Z,64.36
2019-06-20T03:54:02.698Z,64.25
2019-06-20T03:56:33.620Z,64.01
2019-06-20T03:59:04.440Z,63.90
2019-06-20T04:01:35.359Z,63.85
2019-06-20T04:04:06.061Z,63.53
2019-06-20T04:06:36.777Z,63.23
2019-06-20T04:09:08.178Z,63.06
2019-06-20T04:11:39.124Z,62.90
2019-06-20T04:14:10.082Z,62.86
2019-06-20T04:16:40.760Z,61.89
2019-06-20T04:19:11.714Z,61.83
2019-06-20T04:21:42.829Z,60.81
2019-06-20T04:24:13.650Z,59.16
2019-06-20T04:26:44.338Z,57.31
2019-06-20T04:29:15.349Z,55.52
2019-06-20T04:31:46.067Z,53.55
2019-06-20T04:34:17.116Z,52.49
2019-06-20T04:36:48.249Z,51.89
2019-06-20T04:39:19.803Z,48.65
2019-06-20T04:41:50.555Z,44.65
2019-06-20T04:44:21.499Z,42.05
2019-06-20T04:46:56.712Z,46.30
2019-06-20T04:49:27.446Z,47.86
2019-06-20T04:51:58.553Z,52.94
2019-06-20T04:54:29.223Z,54.19
2019-06-20T04:57:02.261Z,56.09
2019-06-20T04:59:33.481Z,55.08
2019-06-20T05:02:04.478Z,55.51
2019-06-20T05:04:35.137Z,57.71
2019-06-20T05:07:16.266Z,58.19
2019-06-20T05:09:46.938Z,58.15
2019-06-20T05:12:18.221Z,60.57
2019-06-20T05:14:49.184Z,60.40
2019-06-20T05:17:20.369Z,61.70
2019-06-20T05:19:51.029Z,61.10
2019-06-20T05:22:22.042Z,60.74
2019-06-20T05:24:52.721Z,59.92
2019-06-20T05:27:23.796Z,60.18
2019-06-20T05:29:54.488Z,61.31
2019-06-20T05:32:25.457Z,62.47
2019-06-20T05:34:57.440Z,62.50
2019-06-20T05:37:28.420Z,62.96
2019-06-20T05:39:59.516Z,63.14
2019-06-20T05:42:30.186Z,61.60
2019-06-20T05:45:01.194Z,61.46
2019-06-20T05:47:32.219Z,60.95
2019-06-20T05:50:03.362Z,61.36
2019-06-20T05:52:35.058Z,61.02
2019-06-20T05:55:08.903Z,60.70
2019-06-20T05:57:40.280Z,61.47
2019-06-20T06:00:12.503Z,61.73
2019-06-20T06:02:43.465Z,61.22
2019-06-20T06:05:15.732Z,60.11
2019-06-20T06:07:46.886Z,58.47
2019-06-20T06:10:19.481Z,55.98
2019-06-20T06:12:50.159Z,54.88
2019-06-20T06:15:21.430Z,55.08
2019-06-20T06:17:52.373Z,57.06
2019-06-20T06:20:23.674Z,57.08
2019-06-20T06:22:54.359Z,58.13
2019-06-20T06:25:25.108Z,60.05
2019-06-20T06:27:56.063Z,60.56
2019-06-20T06:30:27.633Z,60.74
2019-06-20T06:32:58.647Z,61.53
2019-06-20T06:35:29.818Z,62.13
2019-06-20T06:38:00.755Z,61.74
2019-06-20T06:40:31.594Z,60.74
2019-06-20T06:43:02.556Z,61.82
2019-06-20T06:45:33.305Z,60.98
2019-06-20T06:48:04.279Z,61.87
2019-06-20T06:50:35.281Z,64.99
2019-06-20T06:53:06.011Z,64.69
2019-06-20T06:55:36.951Z,66.94
2019-06-20T06:58:07.688Z,64.74
2019-06-20T07:00:38.652Z,66.56
2019-06-20T07:03:09.694Z,64.66
2019-06-20T07:05:40.614Z,65.33
2019-06-20T07:08:11.705Z,65.14
2019-06-20T07:10:45.187Z,63.45
2019-06-20T07:13:15.892Z,63.24
2019-06-20T07:15:46.849Z,64.33
2019-06-20T07:18:17.799Z,62.34
2019-06-20T07:20:48.857Z,62.65
2019-06-20T07:23:19.701Z,62.58
2019-06-20T07:25:51.206Z,61.79
2019-06-20T07:28:22.173Z,59.03
2019-06-20T07:30:53.077Z,58.48
2019-06-20T07:33:24.027Z,58.68
2019-06-20T07:35:55.401Z,59.33
2019-06-20T07:38:26.108Z,59.51
2019-06-20T07:40:56.798Z,57.28
2019-06-20T07:43:27.476Z,56.65
2019-06-20T07:46:02.485Z,56.57
2019-06-20T07:48:30.830Z,55.20
2019-06-20T07:51:01.494Z,56.28
2019-06-20T07:53:32.606Z,55.38
2019-06-20T07:56:03.732Z,55.09
2019-06-20T07:58:35.422Z,53.94
2019-06-20T08:01:06.793Z,54.33
2019-06-20T08:03:37.624Z,55.20
2019-06-20T08:06:08.305Z,53.50
2019-06-20T08:08:39.373Z,55.82
2019-06-20T08:11:10.311Z,55.51
2019-06-20T08:13:41.246Z,55.51
2019-06-20T08:16:11.997Z,54.29
2019-06-20T08:18:42.752Z,53.26
2019-06-20T08:21:15.444Z,55.44
2019-06-20T08:23:46.254Z,54.93
2019-06-20T08:26:17.736Z,53.80
2019-06-20T08:28:48.441Z,53.19
2019-06-20T08:31:19.559Z,53.52
2019-06-20T08:33:50.215Z,52.96
2019-06-20T08:36:21.388Z,53.92
2019-06-20T08:38:52.382Z,53.96
2019-06-20T08:41:23.346Z,52.32
2019-06-20T08:43:55.342Z,49.96
2019-06-20T08:46:26.981Z,47.66
2019-06-20T08:48:58.235Z,45.36
2019-06-20T08:51:30.086Z,44.63
2019-06-20T08:54:01.220Z,43.34
2019-06-20T08:56:33.843Z,46.57
2019-06-20T08:59:04.958Z,45.44
2019-06-20T09:01:35.952Z,45.42
2019-06-20T09:04:06.703Z,46.66
2019-06-20T09:06:37.664Z,48.60
2019-06-20T09:09:09.063Z,49.26
2019-06-20T09:11:39.791Z,52.58
2019-06-20T09:14:10.620Z,54.25
2019-06-20T09:16:41.547Z,54.19
2019-06-20T09:19:13.017Z,55.21
2019-06-20T09:21:44.285Z,54.81
2019-06-20T09:24:15.272Z,54.24
2019-06-20T09:26:45.977Z,54.08
2019-06-20T09:29:16.983Z,53.67
2019-06-20T09:31:48.003Z,53.46
2019-06-20T09:34:19.030Z,55.12
2019-06-20T09:36:52.021Z,55.05
2019-06-20T09:39:22.580Z,53.83
2019-06-20T09:41:54.400Z,53.12
2019-06-20T09:44:25.290Z,55.06
2019-06-20T09:46:56.455Z,52.58
2019-06-20T09:49:28.911Z,53.40
2019-06-20T09:52:00.066Z,52.03
2019-06-20T09:54:30.925Z,52.13
2019-06-20T09:57:01.916Z,51.96
2019-06-20T09:59:32.976Z,51.77
2019-06-20T10:02:03.912Z,49.53
2019-06-20T10:04:34.635Z,46.64
2019-06-20T10:07:05.737Z,44.57
2019-06-20T10:09:36.490Z,45.93
2019-06-20T10:12:07.627Z,44.04
2019-06-20T10:14:38.607Z,40.79
2019-06-20T10:17:09.533Z,41.21
2019-06-20T10:19:40.478Z,41.28
2019-06-20T10:22:11.422Z,40.82
2019-06-20T10:24:42.385Z,39.18
2019-06-20T10:27:13.468Z,38.30
2019-06-20T10:29:44.474Z,37.46
2019-06-20T10:32:17.065Z,38.53
2019-06-20T10:34:48.388Z,40.86
2019-06-20T10:37:19.506Z,39.43
2019-06-20T10:39:50.256Z,37.07
2019-06-20T10:42:22.127Z,35.43
2019-06-20T10:44:52.867Z,34.74
2019-06-20T10:47:33.575Z,35.47
2019-06-20T10:49:56.360Z,35.80
2019-06-20T10:52:27.481Z,35.17
2019-06-20T10:54:58.191Z,33.69
2019-06-20T10:57:29.053Z,33.87
2019-06-20T10:59:59.716Z,34.39
2019-06-20T11:02:30.367Z,34.86
2019-06-20T11:05:01.067Z,32.86
2019-06-20T11:07:33.202Z,32.38
2019-06-20T11:10:09.862Z,32.77
2019-06-20T11:12:47.853Z,32.14
2019-06-20T11:15:15.989Z,35.68
2019-06-20T11:17:48.330Z,36.67
2019-06-20T11:20:25.819Z,38.01
2019-06-20T11:22:57.217Z,38.21
2019-06-20T11:25:30.057Z,36.65
2019-06-20T11:28:00.874Z,35.49
2019-06-20T11:30:47.942Z,34.44
2019-06-20T11:33:07.544Z,35.99
2019-06-20T11:35:39.280Z,33.97
2019-06-20T11:38:10.269Z,34.71
2019-06-20T11:40:41.633Z,35.31
2019-06-20T11:43:12.913Z,36.26
2019-06-20T11:45:44.115Z,35.92
2019-06-20T11:48:15.126Z,34.39
2019-06-20T11:50:46.664Z,34.01
2019-06-20T11:53:17.712Z,35.76
2019-06-20T11:55:48.869Z,37.79
2019-06-20T11:58:19.711Z,36.80
2019-06-20T12:01:03.121Z,36.98
2019-06-20T12:03:23.711Z,38.63
2019-06-20T12:05:54.676Z,38.84
2019-06-20T12:08:25.667Z,38.72
2019-06-20T12:10:56.428Z,39.17
2019-06-20T12:13:29.275Z,40.51
2019-06-20T12:16:00.532Z,41.78
2019-06-20T12:18:31.581Z,42.96
2019-06-20T12:21:02.696Z,43.13
2019-06-20T12:23:33.788Z,43.49
2019-06-20T12:26:06.211Z,44.35
2019-06-20T12:28:39.002Z,44.43
2019-06-20T12:31:18.900Z,44.86
2019-06-20T12:33:42.516Z,45.06
2019-06-20T12:36:14.366Z,45.60
2019-06-20T12:38:46.275Z,46.53
2019-06-20T12:41:17.169Z,46.51
2019-06-20T12:43:48.327Z,46.67
2019-06-20T12:46:19.669Z,46.48
2019-06-20T12:48:50.340Z,46.05
2019-06-20T12:51:21.295Z,46.44
2019-06-20T12:53:51.947Z,46.16
2019-06-20T12:56:22.621Z,47.00
2019-06-20T12:58:54.050Z,47.03
2019-06-20T13:01:35.584Z,46.68
2019-06-20T13:03:58.726Z,46.81
2019-06-20T13:06:30.630Z,47.09
2019-06-20T13:09:01.925Z,47.20
2019-06-20T13:11:34.588Z,47.67
2019-06-20T13:14:05.270Z,48.17
2019-06-20T13:16:36.156Z,48.10
2019-06-20T13:19:10.976Z,47.44
2019-06-20T13:21:42.056Z,47.36
2019-06-20T13:24:13.100Z,46.77
2019-06-20T13:26:44.215Z,45.68
2019-06-20T13:29:15.174Z,45.55
2019-06-20T13:32:00.595Z,45.79
2019-06-20T13:34:18.756Z,46.05
2019-06-20T13:36:49.990Z,46.25
2019-06-20T13:39:21.233Z,45.98
2019-06-20T13:41:52.239Z,46.59
2019-06-20T13:44:23.910Z,46.96
2019-06-20T13:46:54.747Z,47.65
2019-06-20T13:49:25.849Z,48.81
2019-06-20T13:51:56.520Z,49.99
2019-06-20T13:54:27.452Z,53.17
2019-06-20T13:56:58.447Z,54.38
2019-06-20T13:59:29.265Z,56.46
2019-06-20T14:02:06.535Z,56.76
2019-06-20T14:04:33.596Z,56.74
2019-06-20T14:07:04.351Z,56.86
2019-06-20T14:09:35.406Z,54.38
2019-06-20T14:12:08.033Z,53.14
2019-06-20T14:14:39.219Z,52.38
2019-06-20T14:17:11.177Z,52.64
2019-06-20T14:19:43.735Z,51.86
2019-06-20T14:22:15.286Z,49.78
2019-06-20T14:24:45.991Z,49.69
2019-06-20T14:27:16.713Z,46.01
2019-06-20T14:29:49.137Z,47.70
2019-06-20T14:32:22.382Z,46.61
2019-06-20T14:34:52.416Z,47.62
2019-06-20T14:37:23.145Z,48.98
2019-06-20T14:39:55.018Z,49.76
2019-06-20T14:42:26.110Z,50.62
2019-06-20T14:44:57.254Z,51.09
2019-06-20T14:47:28.260Z,51.23
2019-06-20T14:49:59.235Z,52.89
2019-06-20T14:52:30.518Z,51.25
2019-06-20T14:55:01.616Z,50.80
2019-06-20T14:57:32.316Z,49.28
2019-06-20T15:00:03.173Z,48.34
2019-06-20T15:02:38.705Z,46.88
2019-06-20T15:05:17.305Z,47.51
2019-06-20T15:07:49.566Z,46.77
2019-06-20T15:10:20.736Z,46.97
2019-06-20T15:12:52.331Z,47.38
2019-06-20T15:15:24.211Z,47.86
2019-06-20T15:17:57.664Z,47.48
2019-06-20T15:20:27.866Z,47.65
2019-06-20T15:22:58.645Z,46.86
2019-06-20T15:25:30.125Z,45.37
2019-06-20T15:28:01.628Z,45.26
2019-06-20T15:30:32.323Z,45.62
2019-06-20T15:33:09.990Z,45.65
2019-06-20T15:35:35.396Z,46.02
2019-06-20T15:38:06.500Z,45.59
2019-06-20T15:40:40.225Z,46.54
2019-06-20T15:43:11.985Z,46.66
2019-06-20T15:45:44.812Z,46.95
2019-06-20T15:48:17.537Z,47.20
2019-06-20T15:50:48.471Z,47.23
2019-06-20T15:53:19.261Z,47.52
2019-06-20T15:55:50.431Z,47.01
2019-06-20T15:58:21.163Z,47.34
2019-06-20T16:00:51.860Z,47.75
2019-06-20T16:03:23.021Z,48.47
2019-06-20T16:05:53.843Z,48.00
2019-06-20T16:08:25.940Z,47.29
2019-06-20T16:10:56.904Z,45.67
2019-06-20T16:13:27.932Z,46.83
2019-06-20T16:15:58.898Z,46.62
2019-06-20T16:18:29.845Z,46.10
2019-06-20T16:21:00.813Z,47.06
2019-06-20T16:23:32.580Z,46.66
2019-06-20T16:26:03.223Z,46.89
2019-06-20T16:28:33.915Z,46.47
2019-06-20T16:31:08.694Z,46.97
2019-06-20T16:33:37.297Z,46.06
2019-06-20T16:36:08.222Z,46.94
2019-06-20T16:38:39.242Z,46.68
2019-06-20T16:41:10.051Z,47.25
2019-06-20T16:43:41.160Z,47.03
2019-06-20T16:46:11.878Z,47.03
2019-06-20T16:48:42.576Z,46.81
2019-06-20T16:51:13.599Z,46.98
2019-06-20T16:53:44.282Z,46.70
2019-06-20T16:56:15.327Z,46.86
2019-06-20T16:58:46.008Z,47.12
2019-06-20T17:01:16.942Z,47.49
2019-06-20T17:03:47.901Z,48.20
2019-06-20T17:06:18.913Z,47.31
2019-06-20T17:08:50.997Z,46.96
2019-06-20T17:11:21.981Z,47.04
2019-06-20T17:13:52.942Z,47.63
2019-06-20T17:16:23.914Z,47.06
2019-06-20T17:18:55.000Z,47.09
2019-06-20T17:21:25.772Z,47.77
2019-06-20T17:23:57.402Z,47.72
2019-06-20T17:26:28.465Z,47.63
2019-06-20T17:28:59.781Z,47.62
2019-06-20T17:31:31.412Z,47.82
2019-06-20T17:34:02.223Z,48.15
2019-06-20T17:36:32.911Z,48.43
2019-06-20T17:39:04.997Z,48.63
2019-06-20T17:41:37.402Z,48.56
2019-06-20T17:44:08.688Z,48.65
2019-06-20T17:46:39.355Z,49.20
2019-06-20T17:49:10.482Z,49.42
2019-06-20T17:51:42.153Z,49.66
2019-06-20T17:54:13.275Z,50.16
2019-06-20T17:56:44.363Z,50.24
2019-06-20T17:59:15.101Z,50.56
2019-06-20T18:01:46.297Z,51.01
2019-06-20T18:04:17.226Z,50.95
2019-06-20T18:06:48.205Z,51.50
2019-06-20T18:09:18.873Z,51.60
2019-06-20T18:11:50.092Z,51.54
2019-06-20T18:14:21.106Z,51.59
2019-06-20T18:16:52.252Z,51.78
2019-06-20T18:19:22.945Z,51.59
2019-06-20T18:21:53.640Z,51.71
2019-06-20T18:24:24.592Z,51.80
2019-06-20T18:26:55.557Z,52.27
2019-06-20T18:29:26.254Z,52.30
2019-06-20T18:31:57.251Z,52.30
2019-06-20T18:34:30.327Z,52.68
2019-06-20T18:37:00.422Z,52.30
2019-06-20T18:39:31.734Z,52.16
2019-06-20T18:42:02.883Z,51.59
2019-06-20T18:44:34.106Z,52.02
2019-06-20T18:47:05.167Z,52.25
2019-06-20T18:49:35.831Z,52.69
2019-06-20T18:52:06.645Z,52.95
2019-06-20T18:54:37.575Z,52.92
2019-06-20T18:57:08.304Z,52.34
2019-06-20T19:02:14.211Z,52.56
2019-06-20T19:04:50.449Z,52.62
2019-06-20T19:07:17.974Z,52.86
2019-06-20T19:09:48.982Z,52.98
2019-06-20T19:12:19.915Z,53.57
2019-06-20T19:14:50.929Z,53.64
2019-06-20T19:17:21.882Z,54.69
2019-06-20T19:19:52.818Z,54.40
2019-06-20T19:22:23.584Z,54.65
2019-06-20T19:24:54.272Z,54.48
2019-06-20T19:27:25.065Z,54.73
2019-06-20T19:29:56.265Z,55.16
2019-06-20T19:32:27.432Z,55.62
2019-06-20T19:35:02.481Z,55.70
2019-06-20T19:37:31.089Z,55.36
2019-06-20T19:40:01.992Z,54.80
2019-06-20T19:42:34.091Z,55.21
2019-06-20T19:45:12.839Z,55.56
2019-06-20T19:47:44.139Z,55.27
2019-06-20T19:50:15.592Z,54.52
2019-06-20T19:52:46.369Z,55.11
2019-06-20T19:55:17.848Z,55.40
2019-06-20T19:57:48.971Z,55.04
2019-06-20T20:00:21.707Z,55.59
2019-06-20T20:02:53.723Z,55.60
2019-06-20T20:05:25.067Z,55.21
2019-06-20T20:07:56.203Z,55.00
2019-06-20T20:10:40.017Z,55.37
2019-06-20T20:13:14.490Z,56.80
2019-06-20T20:15:45.782Z,57.36
2019-06-20T20:18:18.525Z,58.60
2019-06-20T20:20:50.204Z,59.08
2019-06-20T20:23:20.893Z,58.87
2019-06-20T20:25:52.037Z,59.39
2019-06-20T20:28:23.048Z,59.54
2019-06-20T20:30:54.554Z,58.02
2019-06-20T20:33:25.662Z,57.58
2019-06-20T20:35:57.366Z,58.54
2019-06-20T20:38:28.457Z,58.78
2019-06-20T20:40:59.413Z,58.56
2019-06-20T20:43:30.404Z,58.71
2019-06-20T20:46:01.429Z,60.80
2019-06-20T20:48:32.783Z,63.30
2019-06-20T20:51:03.624Z,67.49
2019-06-20T20:53:34.730Z,69.69
2019-06-20T20:56:05.451Z,75.38
2019-06-20T20:58:36.405Z,77.94
2019-06-20T21:01:14.355Z,81.21
2019-06-20T21:03:45.308Z,84.76
2019-06-20T21:06:16.335Z,84.26
2019-06-20T21:08:47.258Z,86.57
2019-06-20T21:11:18.235Z,87.79
2019-06-20T21:13:49.223Z,88.99
2019-06-20T21:16:19.947Z,88.48
2019-06-20T21:18:50.680Z,88.88
2019-06-20T21:21:22.122Z,89.36
2019-06-20T21:23:52.933Z,88.78
2019-06-20T21:26:24.036Z,89.03
2019-06-20T21:28:54.785Z,87.85
2019-06-20T21:31:25.873Z,87.30
2019-06-20T21:33:56.938Z,88.18
2019-06-20T21:36:27.719Z,88.56
2019-06-20T21:38:58.735Z,88.14
2019-06-20T21:41:29.791Z,88.21
2019-06-20T21:44:00.883Z,87.88
2019-06-20T21:46:31.878Z,88.16
2019-06-20T21:49:02.901Z,87.61
2019-06-20T21:51:33.573Z,87.70
2019-06-20T21:54:04.952Z,87.69
2019-06-20T21:56:35.965Z,86.21
2019-06-20T21:59:06.983Z,86.02
2019-06-20T22:01:39.106Z,85.10
2019-06-20T22:04:09.768Z,86.18
2019-06-20T22:06:40.953Z,85.71
2019-06-20T22:09:11.891Z,84.31
2019-06-20T22:11:43.746Z,84.54
2019-06-20T22:14:14.732Z,84.60
2019-06-20T22:16:45.766Z,84.62
2019-06-20T22:19:16.828Z,84.51
2019-06-20T22:21:47.657Z,84.00
2019-06-20T22:24:18.716Z,85.01
2019-06-20T22:26:49.647Z,86.51
2019-06-20T22:29:21.628Z,86.67
2019-06-20T22:31:52.672Z,86.42
2019-06-20T22:34:23.420Z,87.02
2019-06-20T22:36:54.129Z,87.42
2019-06-20T22:39:25.027Z,87.29
2019-06-20T22:41:55.792Z,87.47
2019-06-20T22:44:26.756Z,86.86
2019-06-20T22:46:57.503Z,86.12
2019-06-20T22:49:28.623Z,85.61
2019-06-20T22:51:59.571Z,85.66
2019-06-20T22:54:30.898Z,85.87
2019-06-20T22:57:01.621Z,86.03
2019-06-20T22:59:32.690Z,86.59
2019-06-20T23:02:06.608Z,86.52
2019-06-20T23:04:37.257Z,87.02
2019-06-20T23:07:08.273Z,87.41
2019-06-20T23:09:39.277Z,87.31
2019-06-20T23:12:09.992Z,87.71
2019-06-20T23:14:40.954Z,87.52
2019-06-20T23:17:11.636Z,87.03
2019-06-20T23:19:42.326Z,86.95
2019-06-20T23:22:13.290Z,86.66
2019-06-20T23:24:44.400Z,86.44
2019-06-20T23:27:15.328Z,86.81
2019-06-20T23:29:46.307Z,86.97
2019-06-20T23:32:16.979Z,86.90
2019-06-20T23:34:47.993Z,87.08
2019-06-20T23:37:18.973Z,86.98
2019-06-20T23:39:50.301Z,86.49
2019-06-20T23:42:21.266Z,86.78
2019-06-20T23:44:51.944Z,86.83
2019-06-20T23:47:22.916Z,87.18
2019-06-20T23:49:53.616Z,86.97
2019-06-20T23:52:26.294Z,86.93
2019-06-20T23:54:57.278Z,86.64
2019-06-20T23:57:28.259Z,86.83
2019-06-20T23:59:59.191Z,87.17
